DRI-NNSC Building Weather observations

Data are for 10 minute period ending at time listed.
 Day   Time   Solar   Ave.   Ave.  Ave.  Vector  Max.   Baro.   Total    
  of    of     Rad.   Air    Rel.  Wind   Wind   Wind  Press.  Precip.   
Year   Day            Temp.  Hum.  Speed  Dir.   Gust                    
2015   (PST)  Kw/m2    F      %     mph   deg.    mph    mb.     in.     
-------------------------------------------------------------------------
 210    0:30   0.00   68.0    15    3.7   335      5   853.7    0.00 
 210    0:40   0.00   68.6    14    3.4   346      6   853.7    0.00 
 210    0:50   0.00   69.6    13    1.0    33      2   853.7    0.00 
 210    1:00   0.00   70.0    13    1.7    57      2   853.7    0.00 
 210    1:10   0.00   70.1    13    2.0    66      3   853.6    0.00 
 210    1:20   0.00   67.5    15    1.4   115      3   853.6    0.00 
 210    1:30   0.00   65.4    17    1.4   171      3   853.7    0.00 
 210    1:40   0.00   64.9    18    1.1   181      2   853.6    0.00 
 210    1:50   0.00   64.7    18    0.2   199      2   853.5    0.00 
 210    2:00   0.00   65.1    18    0.0     0      0   853.5    0.00 
 210    2:10   0.00   65.6    17    0.1   251      1   853.6    0.00 
 210    2:20   0.00   66.2    16    1.3   308      2   853.5    0.00 
 210    2:30   0.00   66.2    16    1.9   328      3   853.5    0.00 
 210    2:40   0.00   66.2    16    1.5   322      2   853.5    0.00 
 210    2:50   0.00   64.8    18    2.4    99      4   853.6    0.00 
 210    3:00   0.00   63.7    19    1.3   116      3   853.6    0.00 
 210    3:10   0.00   63.5    18    0.7    53      2   853.6    0.00 
 210    3:20   0.00   63.0    18    0.6   346      2   853.6    0.00 
 210    3:30   0.00   62.8    18    0.3    50      2   853.8    0.00 
 210    3:40   0.00   63.3    18    2.4    38      3   853.8    0.00 
 210    3:50   0.00   64.4    17    2.9    40      3   853.8    0.00 
 210    4:00   0.00   64.8    16    3.1    37      4   853.8    0.00 
 210    4:10   0.00   65.0    16    2.7    43      3   853.8    0.00 
 210    4:20   0.00   63.3    18    4.9    65      6   853.8    0.00 
 210    4:30   0.00   62.5    18    5.4    64      6   853.9    0.00 
 210    4:40   0.00   61.8    19    3.2    85      5   854.0    0.00 
 210    4:50   0.00   61.5    20    3.1   110      6   854.1    0.00 
 210    5:00   0.00   61.1    20    2.7   104      4   854.1    0.00 
 210    5:10   0.01   61.3    20    2.2    90      3   854.2    0.00 
 210    5:20   0.01   61.6    20    2.5    84      4   854.3    0.00 
 210    5:30   0.01   61.5    20    2.4    66      4   854.4    0.00 
 210    5:40   0.03   61.9    20    2.1    62      3   854.4    0.00 
 210    5:50   0.09   62.6    20    1.6   106      2   854.5    0.00 
 210    6:00   0.12   63.7    20    1.4   104      3   854.5    0.00 
 210    6:10   0.14   64.1    20    2.1   105      3   854.6    0.00 
 210    6:20   0.17   64.9    20    2.0   106      3   854.7    0.00 
 210    6:30   0.20   65.6    19    1.3   110      3   854.7    0.00 
 210    6:40   0.24   67.0    18    0.7   151      2   854.8    0.00 
 210    6:50   0.27   67.4    17    0.8    88      3   854.8    0.00 
 210    7:00   0.30   67.3    18    1.0   127      3   854.7    0.00 
 210    7:10   0.34   68.0    16    1.3   107      3   854.8    0.00 
 210    7:20   0.37   68.6    16    1.2    76      3   854.9    0.00 
 210    7:30   0.40   69.7    15    1.1    70      3   854.9    0.00 
 210    7:40   0.43   69.5    14    2.4    90      5   854.9    0.00 
 210    7:50   0.46   70.3    14    3.1   108      5   854.9    0.00 
 210    8:00   0.50   70.7    14    3.4    90      6   854.9    0.00 
 210    8:10   0.53   71.5    14    3.0   112      6   854.9    0.00 
 210    8:20   0.56   71.8    14    4.6   115      7   855.0    0.00 
 210    8:30   0.59   72.8    14    4.8   106      8   854.9    0.00 
 210    8:40   0.62   73.2    13    4.7   118      8   854.9    0.00 
 210    8:50   0.65   74.0    13    5.2   102      9   854.9    0.00 
 210    9:00   0.67   74.5    11    5.6   105     10   854.8    0.00 
 210    9:10   0.70   75.5    11    6.2   112      9   854.8    0.00 
 210    9:20   0.72   75.8    11    6.1   110     10   854.7    0.00 
 210    9:30   0.75   76.8    10    5.2   103     10   854.7    0.00 
 210    9:40   0.77   77.0    10    6.4   122     10   854.7    0.00 
 210    9:50   0.79   78.0     9    4.3   121      9   854.7    0.00 
 210   10:00   0.82   78.3     9    3.8   133     10   854.7    0.00 
 210   10:10   0.83   78.5     9    5.5   120     10   854.7    0.00 
 210   10:20   0.85   79.5     9    3.6   126      8   854.7    0.00 
 210   10:30   0.87   81.1     9    4.0   137     10   854.6    0.00 
 210   10:40   0.89   80.1     9    4.5    99     12   854.6    0.00 
 210   10:50   0.90   79.9     9    4.9   117     11   854.5    0.00 
 210   11:00   0.91   81.5     8    4.2   117     13   854.3    0.00 
 210   11:10   0.92   81.9     8    6.2   120     13   854.3    0.00 
 210   11:20   0.93   82.3     8    4.2   124      8   854.2    0.00 
 210   11:30   0.94   82.6     8    5.1   102     12   854.2    0.00 
 210   11:40   0.95   83.1     8    6.0   113     12   854.1    0.00 
 210   11:50   0.95   82.6     8    6.2   115     11   854.1    0.00 
 210   12:00   0.95   83.5     8    5.2   126     12   854.0    0.00 
 210   12:10   0.95   84.7     8    6.4   112     13   853.9    0.00 
 210   12:20   0.95   84.5     8    5.6   127     13   853.9    0.00 
 210   12:30   0.95   85.4     8    5.9   130     16   853.8    0.00 
 210   12:40   0.95   85.2     8    7.3    82     18   853.8    0.00 
 210   12:50   0.95   85.8     8    5.8   109     14   853.7    0.00 
 210   13:00   0.94   85.9     8    6.1   113     15   853.6    0.00 
 210   13:10   0.93   86.6     8    6.6    66     14   853.6    0.00 
 210   13:20   0.92   86.9     8    5.4   100     13   853.5    0.00 
 210   13:30   0.92   87.4     8    7.1   104     16   853.5    0.00 
 210   13:40   0.90   87.9     8    5.2    93     15   853.4    0.00 
 210   13:50   0.89   87.6     8    7.2   109     14   853.4    0.00 
 210   14:00   0.87   88.0     8    6.4   106     14   853.3    0.00 
 210   14:10   0.86   88.4     8    6.2    94     11   853.1    0.00 
 210   14:20   0.83   88.6     8    4.4   104      9   853.1    0.00 
 210   14:30   0.82   89.0     8    8.0    86     16   852.9    0.00 
 210   14:40   0.79   89.0     8    6.3    73     14   852.7    0.00 
 210   14:50   0.77   88.7     8    7.8    32     14   852.7    0.00 
 210   15:00   0.75   88.6     8    7.3    92     12   852.6    0.00 
 210   15:10   0.72   88.7     8    6.0   105     11   852.5    0.00 
 210   15:20   0.69   88.2     8    6.6   117     10   852.3    0.00 
 210   15:30   0.67   89.0     8    5.1   103     10   852.4    0.00 
 210   15:40   0.64   89.3     8    3.1    81      8   852.2    0.00 
 210   15:50   0.61   89.7     8    2.2   302      6   852.1    0.00 
 210   16:00   0.58   90.1     8    4.1    14      8   852.8    0.00 
 210   16:10   0.55   89.9     8    5.5   358     12   852.0    0.00 
 210   16:20   0.52   90.1     8    6.9   107     15   851.8    0.00 
 210   16:30   0.49   89.9     8    3.5    94      7   851.9    0.00 
 210   16:40   0.45   89.7     8    3.9    64      9   851.9    0.00 
 210   16:50   0.42   89.9     8    5.5    31     11   851.8    0.00 
 210   17:00   0.39   89.7     8    4.7    22     10   851.7    0.00 
 210   17:10   0.35   89.5     8    3.1   102      8   851.7    0.00 
 210   17:20   0.32   89.7     8    3.8   120      7   851.7    0.00 
 210   17:30   0.29   89.4     8    3.1    74      6   851.7    0.00 
 210   17:40   0.26   89.6     8    3.9   128     12   851.6    0.00 
 210   17:50   0.22   89.2     8    3.5    65      7   851.6    0.00 
 210   18:00   0.19   89.3     8    3.1   109      7   851.7    0.00 
 210   18:10   0.16   88.3     9    4.8   103      8   851.7    0.00 
 210   18:20   0.05   87.5     9    2.9    98      6   851.7    0.00 
 210   18:30   0.03   86.4     9    6.2    97     12   851.8    0.00 
 210   18:40   0.03   85.8     9    6.0   101     12   851.8    0.00 
 210   18:50   0.06   85.6     9    5.6    96      9   851.9    0.00 
 210   19:00   0.03   85.1     9    5.6    94      9   852.0    0.00 
 210   19:10   0.01   84.6     9    5.7    97      9   852.2    0.00 
 210   19:20   0.01   83.8    10    3.6    87      7   852.3    0.00 
 210   19:30   0.00   82.8    10    1.6    46      4   852.5    0.00 
 210   19:40   0.00   81.7    10    3.9   343      6   852.6    0.00 
 210   19:50   0.00   81.8    11    3.8   343      6   852.7    0.00 
 210   20:00   0.00   81.1    11    1.8   329      5   852.9    0.00 
 210   20:10   0.00   80.0    11    3.3   329      7   853.0    0.00 
 210   20:20   0.00   80.3    11    5.1   342      8   853.2    0.00 
 210   20:30   0.00   79.9    11    3.8   323      8   853.3    0.00 
 210   20:40   0.00   79.1    12    5.0   330      9   853.5    0.00 
 210   20:50   0.00   79.7    12    6.9   338     10   853.5    0.00 
 210   21:00   0.00   79.9    12    8.0   348     11   853.6    0.00 
 210   21:10   0.00   80.5    11    8.1   351     11   853.6    0.00 
 210   21:20   0.00   80.8    11    8.9   351     13   853.7    0.00 
 210   21:30   0.00   80.2    11    7.6   349     11   853.7    0.00 
 210   21:40   0.00   80.1    11    7.9   348     10   853.7    0.00 
 210   21:50   0.00   79.4    12    7.6   345     10   853.7    0.00 
 210   22:00   0.00   79.0    12    6.9   342     11   853.7    0.00 
 210   22:10   0.00   78.3    12    3.9   339      8   853.7    0.00 
 210   22:20   0.00   77.5    13    2.8   314      6   853.8    0.00 
 210   22:30   0.00   76.4    14    2.7   317      5   853.7    0.00 
 210   22:40   0.00   76.9    15    2.3    37      4   853.8    0.00 
 210   22:50   0.00   76.4    15    1.1   333      2   853.9    0.00 
 210   23:00   0.00   75.7    15    2.9   319      4   853.9    0.00 
 210   23:10   0.00   75.2    16    3.3   328      5   853.9    0.00 
 210   23:20   0.00   74.3    17    2.5   319      5   853.8    0.00 
 210   23:30   0.00   74.2    17    1.1   326      3   853.9    0.00 
 210   23:40   0.00   75.1    16    1.7   355      4   854.0    0.00 
 210   23:50   0.00   74.8    17    2.0   301      4   854.0    0.00 
 211    0:00   0.00   73.8    17    4.2   328      7   854.0    0.00 
 211    0:10   0.00   73.8    17    5.4   345      8   853.9    0.00 
 211    0:20   0.00   74.4    17    5.9   333     10   853.9    0.00 

Return to NNSC graphs page.


Western Regional Climate Center,wrcc@dri.edu